Time;durP1;ratioP1;P1;durP2;ratioP2;P2;SDS_P1;SDS_P2;PMS_P1;PMS_P2;Temp;Humidity;BMP_temperature;BMP_pressure;BME280_temperature;BME280_humidity;BME280_pressure;Samples;Min_cycle;Max_cycle;Signal;HPM_P1;HPM_P2
2023/04/18 03:19:01;;;;;;;;;;;10.40;80.70;;;;;;6120585;23;19973;-95
2023/04/18 03:21:27;;;;;;;;;;;10.40;80.90;;;;;;6073612;23;19909;-96
2023/04/18 03:23:52;;;;;;;;;;;10.40;81.50;;;;;;6098950;23;19989;-95
2023/04/18 03:26:18;;;;;;;;;;;10.20;82.50;;;;;;6098077;23;19940;-95
2023/04/18 03:28:44;;;;;;;;;;;10.30;82.70;;;;;;6098381;23;20217;-95
2023/04/18 03:31:09;;;;;;;;;;;10.30;82.40;;;;;;6098924;23;19909;-95
2023/04/18 03:33:35;;;;;;;;;;;10.20;82.60;;;;;;6072492;23;20408;-95
2023/04/18 03:36:00;;;;;;;;;;;10.10;82.70;;;;;;6098684;23;19955;-95
2023/04/18 03:38:26;;;;;;;;;;;10.10;82.40;;;;;;6097964;23;19906;-95
2023/04/18 03:40:52;;;;;;;;;;;10.10;83.00;;;;;;6098655;23;19940;-95
2023/04/18 03:43:36;;;;;;;;;;;10.10;83.60;;;;;;6128310;23;19987;-95
2023/04/18 03:46:02;;;;;;;;;;;10.10;83.40;;;;;;6101405;23;19917;-96
2023/04/18 03:48:27;;;;;;;;;;;10.10;83.20;;;;;;6127868;23;20321;-94
2023/04/18 03:50:53;;;;;;;;;;;10.10;82.90;;;;;;6101070;23;19904;-95
2023/04/18 03:53:19;;;;;;;;;;;10.10;82.60;;;;;;6127124;23;19909;-95
2023/04/18 03:55:44;;;;;;;;;;;10.00;82.40;;;;;;6101200;23;19912;-95
2023/04/18 03:58:10;;;;;;;;;;;10.00;82.40;;;;;;6100924;23;19956;-94
2023/04/18 04:00:36;;;;;;;;;;;10.00;82.70;;;;;;6134210;23;19908;-95
2023/04/18 04:03:01;;;;;;;;;;;9.90;82.60;;;;;;6125443;23;19904;-96
2023/04/18 04:05:27;;;;;;;;;;;9.90;83.40;;;;;;6159165;23;19904;-95
2023/04/18 04:07:52;;;;;;;;;;;9.90;84.00;;;;;;6157740;23;19905;-95
2023/04/18 04:10:18;;;;;;;;;;;9.80;83.30;;;;;;6158575;23;19960;-96
2023/04/18 04:12:44;;;;;;;;;;;9.90;83.60;;;;;;6156979;23;19908;-95
2023/04/18 04:15:09;;;;;;;;;;;9.80;83.90;;;;;;6156840;23;19916;-95
2023/04/18 04:17:35;;;;;;;;;;;9.80;83.90;;;;;;6130534;23;19905;-96
2023/04/18 04:20:01;;;;;;;;;;;9.80;83.40;;;;;;6157445;23;19980;-95
2023/04/18 04:22:26;;;;;;;;;;;9.80;82.80;;;;;;6156668;23;19911;-95
2023/04/18 04:24:52;;;;;;;;;;;9.70;82.90;;;;;;6156818;23;19909;-94
2023/04/18 04:27:17;;;;;;;;;;;9.60;82.80;;;;;;6156437;23;20216;-95
2023/04/18 04:29:43;;;;;;;;;;;9.60;81.90;;;;;;6157498;23;19904;-96
2023/04/18 04:32:08;;;;;;;;;;;9.70;81.60;;;;;;6130785;23;19919;-96
2023/04/18 04:34:35;;;;;;;;;;;9.70;81.20;;;;;;6130461;23;19904;-96
2023/04/18 04:37:01;;;;;;;;;;;9.70;80.10;;;;;;6157219;23;19905;-96
2023/04/18 04:39:27;;;;;;;;;;;9.70;80.00;;;;;;6130630;23;19905;-96
2023/04/18 04:41:52;;;;;;;;;;;9.70;79.90;;;;;;6130277;23;19913;-96
2023/04/18 04:44:18;;;;;;;;;;;9.70;79.70;;;;;;6130293;23;19905;-96
2023/04/18 04:46:44;;;;;;;;;;;9.80;80.40;;;;;;6105838;23;19905;-95
2023/04/18 04:49:10;;;;;;;;;;;9.70;79.00;;;;;;6156714;23;19909;-96
2023/04/18 04:51:36;;;;;;;;;;;9.70;80.60;;;;;;6156288;23;19909;-96
2023/04/18 04:54:01;;;;;;;;;;;9.70;82.00;;;;;;6156427;23;19911;-96
2023/04/18 04:56:27;;;;;;;;;;;9.70;82.60;;;;;;6156943;23;19904;-95
2023/04/18 05:04:15;;;;;;;;;;;9.70;82.80;;;;;;6147963;23;20601;-96
